createdAt,value
2023-02-27T00:04:34.723Z,53.73
2023-02-27T00:09:42.057Z,53.90
2023-02-27T00:14:45.524Z,54.20
2023-02-27T00:19:48.916Z,53.76
2023-02-27T00:24:53.715Z,53.92
2023-02-27T00:29:56.778Z,53.77
2023-02-27T00:35:00.432Z,54.13
2023-02-27T00:40:06.479Z,54.18
2023-02-27T00:45:11.065Z,53.52
2023-02-27T00:50:15.534Z,53.91
2023-02-27T00:55:20.534Z,53.67
2023-02-27T01:00:24.081Z,53.52
2023-02-27T01:05:27.720Z,53.76
2023-02-27T01:10:32.749Z,54.18
2023-02-27T01:15:36.379Z,54.29
2023-02-27T01:20:39.878Z,54.22
2023-02-27T01:25:44.776Z,54.55
2023-02-27T01:30:48.417Z,54.51
2023-02-27T01:35:51.993Z,54.89
2023-02-27T01:40:57.540Z,54.21
2023-02-27T01:46:01.473Z,54.12
2023-02-27T01:51:09.160Z,54.45
2023-02-27T01:56:17.321Z,54.27
2023-02-27T02:01:22.824Z,54.12
2023-02-27T02:06:26.643Z,54.51
2023-02-27T02:11:31.736Z,54.55
2023-02-27T02:17:13.918Z,53.92
2023-02-27T02:22:42.718Z,54.74
2023-02-27T02:28:04.468Z,54.23
2023-02-27T02:33:47.336Z,55.30
2023-02-27T02:39:09.269Z,55.15
2023-02-27T02:44:24.737Z,54.84
2023-02-27T02:49:34.568Z,54.56
2023-02-27T02:54:45.104Z,54.46
2023-02-27T02:59:55.244Z,55.07
2023-02-27T03:05:02.954Z,54.54
2023-02-27T03:10:11.705Z,54.94
2023-02-27T03:15:20.320Z,54.96
2023-02-27T03:20:26.609Z,54.88
2023-02-27T03:25:32.774Z,55.20
2023-02-27T03:30:39.240Z,55.33
2023-02-27T03:35:48.564Z,54.80
2023-02-27T03:41:04.968Z,55.11
2023-02-27T03:46:13.608Z,54.66
2023-02-27T03:51:19.601Z,54.96
2023-02-27T03:56:29.663Z,55.24
2023-02-27T04:01:33.628Z,55.18
2023-02-27T04:06:56.032Z,55.27
2023-02-27T04:12:25.174Z,55.64
2023-02-27T04:17:31.760Z,55.32
2023-02-27T04:22:39.590Z,55.46
2023-02-27T04:27:52.801Z,55.56
2023-02-27T04:33:01.324Z,55.75
2023-02-27T04:38:11.085Z,55.74
2023-02-27T04:43:17.883Z,55.48
2023-02-27T04:48:24.589Z,55.67
2023-02-27T04:53:33.492Z,55.34
2023-02-27T04:58:41.392Z,55.31
2023-02-27T05:03:49.050Z,56.04
2023-02-27T05:09:00.461Z,55.47
2023-02-27T05:14:13.679Z,55.01
2023-02-27T05:19:20.178Z,55.17
2023-02-27T05:24:32.127Z,54.60
2023-02-27T05:29:43.881Z,54.51
2023-02-27T05:34:54.114Z,55.25
2023-02-27T05:39:58.565Z,55.07
2023-02-27T05:45:09.132Z,54.80
2023-02-27T05:50:17.019Z,54.79
2023-02-27T05:55:25.600Z,54.88
2023-02-27T06:00:38.628Z,54.52
2023-02-27T06:05:44.648Z,54.20
2023-02-27T06:10:50.001Z,54.51
2023-02-27T06:15:55.017Z,54.16
2023-02-27T06:20:58.882Z,54.27
2023-02-27T06:26:02.445Z,53.71
2023-02-27T06:31:07.333Z,54.01
2023-02-27T06:36:11.368Z,54.18
2023-02-27T06:41:15.143Z,53.63
2023-02-27T06:46:20.216Z,53.28
2023-02-27T06:51:23.582Z,53.50
2023-02-27T06:56:27.319Z,53.05
2023-02-27T07:01:32.406Z,52.78
2023-02-27T07:07:34.246Z,52.79
2023-02-27T07:11:59.580Z,52.49
2023-02-27T07:17:04.831Z,52.92
2023-02-27T07:22:09.672Z,52.23
2023-02-27T07:27:13.022Z,52.57
2023-02-27T07:32:18.110Z,51.64
2023-02-27T07:37:21.701Z,51.66
2023-02-27T07:42:26.570Z,51.20
2023-02-27T07:47:32.006Z,51.45
2023-02-27T07:52:35.617Z,51.04
2023-02-27T07:57:39.587Z,51.15
2023-02-27T08:02:44.479Z,50.25
2023-02-27T08:07:47.726Z,50.56
2023-02-27T08:12:51.066Z,50.52
2023-02-27T08:17:56.217Z,50.15
2023-02-27T08:22:59.858Z,50.06
2023-02-27T08:28:03.377Z,49.74
2023-02-27T08:33:08.300Z,49.79
2023-02-27T08:38:11.510Z,49.16
2023-02-27T08:43:15.096Z,48.64
2023-02-27T08:48:20.345Z,47.96
2023-02-27T08:53:23.904Z,48.01
2023-02-27T08:58:28.819Z,47.70
2023-02-27T09:03:33.320Z,47.15
2023-02-27T09:08:36.821Z,47.41
2023-02-27T09:13:40.351Z,46.79
2023-02-27T09:18:45.661Z,47.12
2023-02-27T09:23:49.175Z,46.12
2023-02-27T09:28:52.779Z,45.50
2023-02-27T09:33:58.445Z,45.54
2023-02-27T09:39:01.932Z,45.36
2023-02-27T09:44:05.580Z,43.16
2023-02-27T09:49:17.876Z,43.51
2023-02-27T09:54:21.551Z,44.27
2023-02-27T09:59:36.105Z,43.72
2023-02-27T10:04:48.890Z,44.24
2023-02-27T10:10:01.708Z,44.05
2023-02-27T10:15:11.969Z,44.09
2023-02-27T10:20:25.731Z,44.44
2023-02-27T10:25:32.173Z,45.26
2023-02-27T10:30:36.207Z,45.21
2023-02-27T10:35:44.536Z,45.68
2023-02-27T10:40:49.818Z,45.24
2023-02-27T10:45:54.598Z,44.67
2023-02-27T10:51:23.931Z,44.55
2023-02-27T10:56:28.862Z,44.68
2023-02-27T11:01:44.433Z,43.78
2023-02-27T11:06:54.804Z,43.85
2023-02-27T11:12:13.332Z,43.50
2023-02-27T11:17:24.324Z,43.33
2023-02-27T11:22:31.477Z,43.05
2023-02-27T11:27:34.933Z,43.25
2023-02-27T11:32:44.312Z,43.16
2023-02-27T11:37:51.247Z,43.80
2023-02-27T11:42:58.530Z,43.36
2023-02-27T11:48:09.721Z,43.50
2023-02-27T11:53:35.842Z,43.80
2023-02-27T11:58:44.703Z,43.87
2023-02-27T12:03:53.770Z,43.81
2023-02-27T12:09:06.309Z,43.77
2023-02-27T12:14:18.136Z,43.80
2023-02-27T12:19:27.194Z,44.86
2023-02-27T12:24:37.981Z,45.07
2023-02-27T12:29:45.297Z,45.29
2023-02-27T12:34:51.313Z,45.75
2023-02-27T12:39:57.933Z,45.86
2023-02-27T12:45:23.590Z,45.70
2023-02-27T12:50:31.578Z,46.56
2023-02-27T12:55:42.569Z,46.97
2023-02-27T13:00:49.726Z,47.09
2023-02-27T13:06:01.871Z,46.96
2023-02-27T13:11:17.499Z,46.85
2023-02-27T13:16:25.864Z,46.83
2023-02-27T13:21:36.469Z,46.53
2023-02-27T13:26:45.356Z,46.62
2023-02-27T13:31:57.502Z,46.89
2023-02-27T13:37:04.599Z,47.23
2023-02-27T13:42:55.571Z,47.23
2023-02-27T13:47:58.994Z,47.68
2023-02-27T13:53:11.415Z,47.92
2023-02-27T13:58:24.924Z,47.99
2023-02-27T14:03:30.419Z,48.67
2023-02-27T14:08:48.119Z,48.92
2023-02-27T14:14:08.438Z,49.27
2023-02-27T14:19:45.128Z,49.04
2023-02-27T14:25:02.867Z,49.01
2023-02-27T14:30:26.467Z,49.91
2023-02-27T14:35:31.702Z,49.50
2023-02-27T14:40:41.703Z,50.07
2023-02-27T14:45:46.678Z,50.11
2023-02-27T14:50:54.063Z,49.88
2023-02-27T14:55:59.122Z,50.21
2023-02-27T15:01:07.707Z,50.70
2023-02-27T15:06:18.519Z,50.55
2023-02-27T15:11:24.365Z,50.76
2023-02-27T15:16:39.280Z,50.72
2023-02-27T15:21:45.769Z,50.57
2023-02-27T15:26:52.500Z,51.00
2023-02-27T15:31:57.623Z,50.81
2023-02-27T15:37:02.285Z,51.37
2023-02-27T15:42:07.048Z,51.31
2023-02-27T15:47:16.861Z,51.00
2023-02-27T15:52:23.291Z,51.25
2023-02-27T15:57:27.312Z,51.45
2023-02-27T16:02:41.503Z,51.58
2023-02-27T16:07:45.929Z,51.70
2023-02-27T16:12:49.541Z,51.57
2023-02-27T16:18:03.679Z,51.86
2023-02-27T16:23:16.253Z,51.67
2023-02-27T16:28:19.866Z,51.82
2023-02-27T16:33:25.989Z,51.62
2023-02-27T16:38:29.631Z,51.74
2023-02-27T16:43:33.741Z,51.58
2023-02-27T16:48:38.644Z,51.29
2023-02-27T16:53:41.843Z,51.21
2023-02-27T16:58:45.881Z,50.97
2023-02-27T17:03:50.784Z,51.09
2023-02-27T17:08:56.202Z,51.08
2023-02-27T17:13:59.812Z,51.94
2023-02-27T17:19:04.833Z,51.63
2023-02-27T17:24:08.673Z,52.47
2023-02-27T17:29:12.493Z,52.11
2023-02-27T17:34:18.230Z,52.53
2023-02-27T17:39:21.726Z,53.15
2023-02-27T17:44:25.137Z,52.87
2023-02-27T17:49:29.931Z,53.05
2023-02-27T17:54:33.823Z,52.95
2023-02-27T17:59:37.777Z,53.03
2023-02-27T18:04:42.829Z,53.94
2023-02-27T18:09:47.031Z,54.27
2023-02-27T18:14:50.438Z,53.61
2023-02-27T18:19:55.783Z,54.15
2023-02-27T18:24:59.428Z,54.79
2023-02-27T18:30:03.812Z,54.84
2023-02-27T18:35:10.810Z,55.38
2023-02-27T18:40:15.905Z,55.18
2023-02-27T18:45:19.524Z,55.14
2023-02-27T18:50:25.441Z,55.91
2023-02-27T18:55:29.187Z,56.02
2023-02-27T19:00:32.625Z,56.48
2023-02-27T19:05:42.772Z,56.58
2023-02-27T19:10:46.240Z,56.07
2023-02-27T19:15:49.897Z,56.61
2023-02-27T19:20:56.464Z,56.46
2023-02-27T19:26:01.062Z,56.60
2023-02-27T19:31:08.638Z,56.81
2023-02-27T19:36:15.409Z,57.30
2023-02-27T19:41:19.152Z,57.27
2023-02-27T19:46:25.224Z,57.62
2023-02-27T19:51:30.558Z,56.76
2023-02-27T19:56:34.201Z,56.81
2023-02-27T20:01:39.062Z,57.29
2023-02-27T20:06:46.954Z,57.76
2023-02-27T20:11:54.016Z,57.63
2023-02-27T20:16:57.518Z,57.29
2023-02-27T20:22:02.483Z,57.71
2023-02-27T20:27:07.536Z,58.07
2023-02-27T20:32:11.126Z,57.92
2023-02-27T20:37:16.480Z,58.48
2023-02-27T20:42:19.949Z,58.67
2023-02-27T20:47:23.515Z,58.31
2023-02-27T20:52:28.312Z,58.67
2023-02-27T20:57:31.693Z,58.54
2023-02-27T21:02:35.166Z,58.66
2023-02-27T21:07:40.063Z,59.06
2023-02-27T21:12:45.229Z,58.58
2023-02-27T21:17:48.812Z,58.38
2023-02-27T21:22:56.010Z,59.59
2023-02-27T21:28:02.338Z,59.09
2023-02-27T21:33:06.341Z,59.08
2023-02-27T21:38:11.576Z,59.01
2023-02-27T21:43:15.099Z,59.09
2023-02-27T21:48:18.630Z,58.74
2023-02-27T21:53:23.389Z,59.09
2023-02-27T21:58:26.870Z,58.46
2023-02-27T22:03:35.124Z,59.27
2023-02-27T22:08:40.466Z,59.05
2023-02-27T22:13:43.967Z,58.87
2023-02-27T22:18:47.709Z,59.49
2023-02-27T22:23:53.182Z,58.23
2023-02-27T22:28:58.190Z,59.56
2023-02-27T22:34:04.099Z,58.80
2023-02-27T22:39:08.818Z,59.32
2023-02-27T22:44:14.951Z,59.59
2023-02-27T22:49:20.609Z,59.20
2023-02-27T22:54:25.646Z,59.35
2023-02-27T22:59:29.343Z,59.37
2023-02-27T23:04:32.789Z,58.90
2023-02-27T23:09:37.664Z,58.94
2023-02-27T23:14:40.996Z,58.48
2023-02-27T23:19:46.118Z,58.93
2023-02-27T23:24:50.861Z,59.92
2023-02-27T23:29:54.266Z,59.55
2023-02-27T23:34:57.612Z,60.41
2023-02-27T23:40:02.493Z,59.72
2023-02-27T23:45:07.374Z,59.96
2023-02-27T23:50:12.643Z,60.25
2023-02-27T23:55:18.501Z,59.23
